Time;durP1;ratioP1;P1;durP2;ratioP2;P2;SDS_P1;SDS_P2;PMS_P1;PMS_P2;Temp;Humidity;BMP_temperature;BMP_pressure;BME280_temperature;BME280_humidity;BME280_pressure;Samples;Min_cycle;Max_cycle;Signal;HPM_P1;HPM_P2
2021/08/25 00:02:20;;;;;;;8.25;6.10;;;;;;;15.27;nan;101233.22;5041924;28;20052;-83
2021/08/25 00:04:45;;;;;;;7.90;5.35;;;;;;;15.25;nan;101235.25;5033640;28;20117;-82
2021/08/25 00:07:11;;;;;;;6.43;5.15;;;;;;;15.22;nan;101229.38;5048705;28;20582;-83
2021/08/25 00:09:38;;;;;;;6.32;5.07;;;;;;;15.21;nan;101227.72;5026060;28;20032;-84
2021/08/25 00:12:08;;;;;;;5.85;4.93;;;;;;;15.20;nan;101212.72;5030007;28;20231;-83
2021/08/25 00:14:38;;;;;;;6.85;5.40;;;;;;;15.22;nan;101213.41;5036255;28;20033;-82
2021/08/25 00:17:04;;;;;;;5.53;4.55;;;;;;;15.18;nan;101209.41;5031224;28;20292;-82
2021/08/25 00:19:29;;;;;;;6.70;5.88;;;;;;;15.16;nan;101201.59;5052900;28;20116;-82
2021/08/25 00:21:55;;;;;;;6.15;5.00;;;;;;;15.20;nan;101202.06;5032543;28;20083;-84
2021/08/25 00:24:21;;;;;;;6.43;5.35;;;;;;;15.23;nan;101197.25;5037307;28;20056;-83
2021/08/25 00:26:47;;;;;;;8.68;6.10;;;;;;;15.22;nan;101205.41;5039717;28;20048;-86
2021/08/25 00:29:13;;;;;;;7.00;5.95;;;;;;;15.11;nan;101193.25;5049566;28;20103;-85
2021/08/25 00:31:39;;;;;;;7.45;5.97;;;;;;;15.06;nan;101195.56;5051423;28;20037;-85
2021/08/25 00:34:05;;;;;;;7.00;5.20;;;;;;;15.04;nan;101194.88;5042767;28;20036;-84
2021/08/25 00:36:30;;;;;;;6.30;4.90;;;;;;;14.93;nan;101190.72;5054633;28;20045;-83
2021/08/25 00:38:55;;;;;;;8.10;5.82;;;;;;;14.88;nan;101194.88;5056899;28;20041;-85
2021/08/25 00:41:21;;;;;;;6.55;5.40;;;;;;;14.84;nan;101197.03;5031591;28;20054;-84
2021/08/25 00:43:46;;;;;;;7.00;5.60;;;;;;;14.78;nan;101193.19;5032334;28;20035;-84
2021/08/25 00:46:11;;;;;;;7.05;6.00;;;;;;;14.73;nan;101192.00;5040243;28;20052;-84
2021/08/25 00:48:37;;;;;;;7.22;5.90;;;;;;;14.76;nan;101189.88;5036614;28;20051;-82
2021/08/25 00:51:02;;;;;;;6.97;5.53;;;;;;;14.84;nan;101192.53;5054450;28;20057;-84
2021/08/25 00:53:28;;;;;;;6.95;5.40;;;;;;;14.80;nan;101191.22;5038963;28;20091;-83
2021/08/25 00:55:55;;;;;;;7.15;5.32;;;;;;;14.76;nan;101199.69;5058685;28;20045;-84
2021/08/25 00:58:20;;;;;;;7.47;5.75;;;;;;;14.69;nan;101194.16;5060829;28;20033;-86
2021/08/25 01:01:02;;;;;;;6.75;5.38;;;;;;;14.56;nan;101199.09;5038347;28;20033;-85
2021/08/25 01:03:43;;;;;;;8.38;5.80;;;;;;;14.54;nan;101188.66;5036144;28;20040;-84
2021/08/25 01:06:10;;;;;;;7.60;5.47;;;;;;;14.53;nan;101192.25;5036517;28;20519;-83
2021/08/25 01:08:37;;;;;;;5.57;4.60;;;;;;;14.58;nan;101200.63;5037246;28;20533;-82
2021/08/25 01:11:07;;;;;;;6.25;5.13;;;;;;;14.62;nan;101199.31;5032752;28;20038;-84
2021/08/25 01:13:33;;;;;;;7.45;4.97;;;;;;;14.59;nan;101196.97;5040195;28;20077;-84
2021/08/25 01:15:58;;;;;;;6.30;4.88;;;;;;;14.58;nan;101194.47;5055543;28;20037;-83
2021/08/25 01:18:24;;;;;;;6.50;5.18;;;;;;;14.54;nan;101196.63;5029510;28;20040;-83
2021/08/25 01:20:50;;;;;;;7.25;6.00;;;;;;;14.50;nan;101197.06;5041159;28;20518;-83
2021/08/25 01:23:18;;;;;;;7.05;5.13;;;;;;;14.45;nan;101186.91;5048340;28;20053;-84
2021/08/25 01:25:44;;;;;;;7.18;5.97;;;;;;;14.47;nan;101186.72;5030377;28;20502;-85
2021/08/25 01:28:14;;;;;;;5.93;5.20;;;;;;;14.37;nan;101187.72;5054304;28;20029;-83
2021/08/25 01:30:39;;;;;;;6.30;5.25;;;;;;;14.27;nan;101188.84;5053362;28;20057;-83
2021/08/25 01:33:05;;;;;;;6.25;5.07;;;;;;;14.24;nan;101180.16;5030336;28;20033;-83
2021/08/25 01:35:38;;;;;;;6.47;5.32;;;;;;;14.30;nan;101180.53;5043147;28;20124;-85
2021/08/25 01:38:07;;;;;;;6.45;5.28;;;;;;;14.31;nan;101174.22;5036208;28;20403;-83
2021/08/25 01:40:34;;;;;;;7.95;6.05;;;;;;;14.24;nan;101168.69;5040026;28;20033;-84
2021/08/25 01:43:00;;;;;;;6.38;5.20;;;;;;;14.20;nan;101170.84;5027774;28;20553;-83
2021/08/25 01:45:26;;;;;;;6.70;5.78;;;;;;;14.15;nan;101162.50;5041371;28;20029;-84
2021/08/25 01:47:51;;;;;;;6.70;5.70;;;;;;;14.21;nan;101161.88;5047094;28;20040;-83
2021/08/25 01:50:17;;;;;;;6.82;5.55;;;;;;;14.21;nan;101167.19;5037127;28;20040;-84
2021/08/25 01:52:42;;;;;;;7.53;5.18;;;;;;;14.22;nan;101168.03;5056317;28;20075;-85
2021/08/25 01:55:08;;;;;;;7.75;5.80;;;;;;;14.21;nan;101163.72;5039047;28;20044;-85
2021/08/25 01:57:33;;;;;;;8.40;6.15;;;;;;;14.19;nan;101157.72;5038318;28;20076;-83
2021/08/25 01:59:58;;;;;;;6.32;5.53;;;;;;;14.15;nan;101151.03;5059135;28;20040;-84
2021/08/25 02:02:24;;;;;;;7.22;5.65;;;;;;;14.15;nan;101153.69;5038261;28;20044;-82
2021/08/25 02:04:49;;;;;;;8.88;6.10;;;;;;;14.13;nan;101159.16;5054373;28;20253;-84
2021/08/25 02:07:15;;;;;;;6.82;5.65;;;;;;;14.17;nan;101152.53;5056566;28;20055;-83
2021/08/25 02:09:40;;;;;;;9.25;6.15;;;;;;;14.17;nan;101149.06;5035645;28;20051;-83
2021/08/25 02:12:06;;;;;;;7.88;6.40;;;;;;;14.18;nan;101145.38;5036971;28;20033;-84
2021/08/25 02:14:31;;;;;;;7.85;6.13;;;;;;;14.18;nan;101148.91;5040199;28;20143;-86
2021/08/25 02:16:56;;;;;;;7.53;5.70;;;;;;;14.14;nan;101139.56;5034160;28;20095;-84
2021/08/25 02:19:23;;;;;;;9.05;5.70;;;;;;;14.09;nan;101147.19;5032290;28;20120;-84
2021/08/25 02:21:49;;;;;;;7.25;5.75;;;;;;;14.04;nan;101136.22;5030023;28;20037;-84
2021/08/25 02:24:14;;;;;;;9.63;6.25;;;;;;;14.08;nan;101142.03;5038032;28;20032;-83
2021/08/25 02:26:39;;;;;;;8.43;6.13;;;;;;;14.05;nan;101143.19;5036535;28;20546;-84
2021/08/25 02:29:05;;;;;;;6.45;5.68;;;;;;;14.00;nan;101134.84;5031551;28;20125;-84
2021/08/25 02:31:30;;;;;;;7.30;5.40;;;;;;;14.02;nan;101135.53;5027910;28;20053;-84
2021/08/25 02:33:56;;;;;;;7.18;5.70;;;;;;;14.02;nan;101143.50;5031829;28;20136;-84
2021/08/25 02:36:21;;;;;;;7.03;5.70;;;;;;;14.05;nan;101147.69;5044707;28;20118;-83
2021/08/25 02:38:47;;;;;;;7.18;5.88;;;;;;;14.00;nan;101145.50;5054258;28;20068;-83
2021/08/25 02:41:15;;;;;;;7.07;5.90;;;;;;;13.97;nan;101143.16;5028293;28;20044;-86
2021/08/25 02:43:41;;;;;;;6.15;5.35;;;;;;;13.93;nan;101145.28;5035788;28;20044;-84
2021/08/25 02:46:07;;;;;;;7.63;5.78;;;;;;;13.97;nan;101136.00;5062820;28;20033;-85
2021/08/25 02:48:33;;;;;;;8.32;6.10;;;;;;;13.99;nan;101141.16;5055601;28;20410;-84
2021/08/25 02:50:58;;;;;;;8.55;6.30;;;;;;;13.98;nan;101136.84;5044295;28;20040;-85
2021/08/25 02:53:24;;;;;;;8.80;6.63;;;;;;;14.01;nan;101132.06;5032725;28;20574;-83
2021/08/25 02:55:49;;;;;;;7.35;6.05;;;;;;;14.02;nan;101132.88;5033411;28;20045;-84
2021/08/25 02:58:15;;;;;;;6.60;5.80;;;;;;;13.99;nan;101134.03;5032849;28;20041;-83
2021/08/25 03:00:41;;;;;;;7.50;6.15;;;;;;;13.95;nan;101131.84;5050794;28;20317;-85
2021/08/25 03:03:06;;;;;;;7.45;5.70;;;;;;;13.93;nan;101132.00;5067033;28;20496;-84
2021/08/25 03:05:32;;;;;;;6.85;5.75;;;;;;;13.87;nan;101124.66;5052201;28;20041;-84
2021/08/25 03:07:57;;;;;;;6.50;5.55;;;;;;;13.82;nan;101118.97;5051370;28;20037;-84
2021/08/25 03:10:22;;;;;;;7.50;5.80;;;;;;;13.79;nan;101119.28;5035220;28;20045;-83
2021/08/25 03:12:48;;;;;;;8.13;6.20;;;;;;;13.71;nan;101116.59;5034111;28;20036;-83
2021/08/25 03:15:13;;;;;;;7.10;5.85;;;;;;;13.71;nan;101117.44;5032436;28;20165;-84
2021/08/25 03:17:39;;;;;;;7.32;5.50;;;;;;;13.65;nan;101118.06;5035581;28;20439;-84
2021/08/25 03:20:06;;;;;;;6.20;5.25;;;;;;;13.64;nan;101121.72;5037884;28;20033;-84
2021/08/25 03:22:32;;;;;;;7.30;5.40;;;;;;;13.62;nan;101109.56;5057975;28;20572;-84
2021/08/25 03:24:57;;;;;;;7.22;5.95;;;;;;;13.56;nan;101106.56;5033051;28;20040;-83
2021/08/25 03:27:23;;;;;;;9.45;6.50;;;;;;;13.58;nan;101109.03;5030380;28;20104;-83
2021/08/25 03:29:48;;;;;;;8.15;5.65;;;;;;;13.63;nan;101105.91;5064815;28;20032;-83
2021/08/25 03:32:13;;;;;;;8.85;6.40;;;;;;;13.71;nan;101104.16;5029363;28;20437;-84
2021/08/25 03:34:39;;;;;;;7.30;5.57;;;;;;;13.73;nan;101102.16;5029683;28;20052;-83
2021/08/25 03:37:04;;;;;;;7.57;5.97;;;;;;;13.78;nan;101105.19;5055854;28;20441;-84
2021/08/25 03:39:31;;;;;;;7.20;6.05;;;;;;;13.87;nan;101102.53;5058663;28;20062;-83
2021/08/25 03:41:57;;;;;;;8.52;6.13;;;;;;;13.87;nan;101102.53;5056815;28;20037;-85
2021/08/25 03:44:22;;;;;;;6.88;5.53;;;;;;;13.84;nan;101094.91;5025529;28;20044;-85
2021/08/25 03:46:48;;;;;;;10.48;6.25;;;;;;;13.85;nan;101088.56;5055398;28;20448;-84
2021/08/25 03:49:13;;;;;;;6.85;5.70;;;;;;;13.89;nan;101093.41;5044166;28;20040;-84
2021/08/25 03:51:38;;;;;;;6.53;5.13;;;;;;;13.92;nan;101098.44;5023211;28;20428;-84
2021/08/25 03:54:04;;;;;;;6.47;5.47;;;;;;;13.91;nan;101093.28;5055277;28;20508;-84
2021/08/25 03:56:29;;;;;;;6.50;5.32;;;;;;;13.90;nan;101087.13;5041015;28;20045;-83
2021/08/25 03:58:54;;;;;;;9.48;5.63;;;;;;;13.94;nan;101082.31;5052927;28;20072;-83
2021/08/25 04:01:20;;;;;;;6.72;5.30;;;;;;;13.98;nan;101083.66;5052545;28;20037;-82
2021/08/25 04:03:45;;;;;;;7.20;5.63;;;;;;;14.01;nan;101094.81;5042984;28;20025;-85
2021/08/25 04:06:10;;;;;;;6.85;5.65;;;;;;;13.95;nan;101084.00;5063527;28;20525;-84
2021/08/25 04:08:36;;;;;;;6.35;5.50;;;;;;;13.92;nan;101087.81;5042534;28;20037;-84
2021/08/25 04:11:01;;;;;;;8.10;6.18;;;;;;;13.96;nan;101089.13;5021077;28;20041;-85
2021/08/25 04:13:26;;;;;;;14.38;7.40;;;;;;;13.93;nan;101092.13;5055097;28;20057;-82
2021/08/25 04:15:52;;;;;;;12.50;7.53;;;;;;;13.91;nan;101085.28;5035849;28;20045;-83
2021/08/25 04:18:17;;;;;;;12.40;6.70;;;;;;;13.91;nan;101087.94;5047545;28;20405;-83
2021/08/25 04:20:42;;;;;;;13.73;7.72;;;;;;;13.90;nan;101091.63;5053540;28;20075;-84
2021/08/25 04:23:08;;;;;;;13.65;7.57;;;;;;;13.97;nan;101095.31;5052823;28;20538;-85
2021/08/25 04:25:33;;;;;;;7.65;5.78;;;;;;;13.94;nan;101099.13;5035932;28;20059;-84
2021/08/25 04:27:58;;;;;;;6.18;5.28;;;;;;;13.93;nan;101097.44;5053819;28;20037;-82
2021/08/25 04:30:24;;;;;;;7.18;5.43;;;;;;;13.90;nan;101086.31;5038009;28;20041;-83
2021/08/25 04:32:49;;;;;;;11.50;6.20;;;;;;;13.88;nan;101091.75;5039178;28;20028;-82
2021/08/25 04:35:15;;;;;;;23.02;9.75;;;;;;;13.91;nan;101091.44;5034494;28;20037;-83
2021/08/25 04:37:40;;;;;;;28.52;11.93;;;;;;;13.89;nan;101089.94;5029126;28;20103;-83
2021/08/25 04:40:06;;;;;;;22.17;9.60;;;;;;;13.88;nan;101091.75;5032598;28;20029;-84
2021/08/25 04:42:32;;;;;;;9.57;6.50;;;;;;;13.87;nan;101083.94;5036601;28;20041;-82
2021/08/25 04:44:57;;;;;;;7.65;5.40;;;;;;;13.85;nan;101083.25;5036816;28;20037;-83
2021/08/25 04:47:23;;;;;;;6.38;5.28;;;;;;;13.84;nan;101087.75;5055767;28;20083;-83
2021/08/25 04:49:48;;;;;;;6.55;5.28;;;;;;;13.80;nan;101087.25;5041573;28;20099;-83
2021/08/25 04:52:14;;;;;;;6.82;5.32;;;;;;;13.83;nan;101087.94;5053061;28;20043;-83
2021/08/25 04:54:39;;;;;;;7.28;5.20;;;;;;;13.80;nan;101078.44;5023749;28;20087;-82
2021/08/25 04:57:05;;;;;;;7.60;6.03;;;;;;;13.89;nan;101092.59;5055983;28;20037;-83
2021/08/25 04:59:30;;;;;;;6.38;5.38;;;;;;;13.86;nan;101088.44;5026532;28;20034;-83
2021/08/25 05:01:55;;;;;;;9.18;5.40;;;;;;;13.81;nan;101088.06;5032909;28;20037;-83
2021/08/25 05:04:21;;;;;;;7.03;4.95;;;;;;;13.84;nan;101093.06;5053869;28;20096;-82
2021/08/25 05:06:46;;;;;;;6.68;5.40;;;;;;;13.83;nan;101094.06;5039397;28;20041;-84
2021/08/25 05:09:11;;;;;;;9.45;5.88;;;;;;;13.85;nan;101088.56;5037795;28;20059;-82
2021/08/25 05:11:37;;;;;;;7.20;5.85;;;;;;;13.80;nan;101091.75;5028716;28;20044;-82
2021/08/25 05:14:02;;;;;;;7.53;5.97;;;;;;;13.79;nan;101093.53;5056149;28;20025;-84
2021/08/25 05:16:27;;;;;;;10.07;5.80;;;;;;;13.85;nan;101088.56;5035094;28;20088;-82
2021/08/25 05:18:53;;;;;;;9.35;6.13;;;;;;;13.97;nan;101090.81;5036037;28;20033;-83
2021/08/25 05:21:18;;;;;;;6.82;5.38;;;;;;;14.04;nan;101096.31;5028384;28;20124;-84
2021/08/25 05:23:43;;;;;;;6.88;5.63;;;;;;;14.13;nan;101095.34;5070084;28;20104;-82
2021/08/25 05:26:09;;;;;;;8.18;5.65;;;;;;;14.22;nan;101097.03;5034222;28;20053;-83
2021/08/25 05:28:35;;;;;;;7.07;4.95;;;;;;;14.32;nan;101096.88;5038713;28;20036;-84
2021/08/25 05:31:00;;;;;;;6.50;5.47;;;;;;;14.44;nan;101089.44;5048853;28;20414;-84
2021/08/25 05:33:25;;;;;;;7.40;5.40;;;;;;;14.54;nan;101100.81;5045558;28;20029;-84
2021/08/25 05:35:50;;;;;;;6.68;5.00;;;;;;;14.73;nan;101096.16;5029996;28;20069;-85
2021/08/25 05:38:16;;;;;;;6.30;5.00;;;;;;;14.84;nan;101098.50;5033020;28;20048;-83
2021/08/25 05:40:41;;;;;;;8.68;5.10;;;;;;;14.97;nan;101093.53;5057029;28;20056;-84
2021/08/25 05:43:07;;;;;;;7.32;4.65;;;;;;;14.99;nan;101096.88;5040931;28;20597;-83
2021/08/25 05:45:32;;;;;;;6.68;5.13;;;;;;;15.05;nan;101093.53;5059649;28;20040;-83
2021/08/25 05:47:58;;;;;;;6.03;4.85;;;;;;;15.32;nan;101098.66;5056233;28;20089;-82
2021/08/25 05:50:25;;;;;;;7.80;5.05;;;;;;;15.64;nan;101093.25;5064164;28;20033;-84
2021/08/25 05:52:51;;;;;;;6.30;4.53;;;;;;;15.89;nan;101096.69;5064999;28;20482;-82
2021/08/25 05:55:16;;;;;;;5.70;4.43;;;;;;;16.17;nan;101093.59;5047201;28;20097;-84
2021/08/25 05:57:46;;;;;;;7.05;4.68;;;;;;;16.03;nan;101092.47;5023095;28;20037;-84
2021/08/25 06:00:14;;;;;;;5.32;4.30;;;;;;;16.29;nan;101089.53;5059439;28;20029;-83
2021/08/25 06:02:39;;;;;;;5.32;3.97;;;;;;;16.71;nan;101090.94;5068977;28;20036;-83
2021/08/25 06:05:05;;;;;;;5.47;4.32;;;;;;;17.18;nan;101097.91;5050604;28;20037;-82
2021/08/25 06:07:30;;;;;;;5.80;4.05;;;;;;;17.32;nan;101092.75;5074997;28;20040;-84
2021/08/25 06:09:56;;;;;;;6.70;4.43;;;;;;;17.37;nan;101098.41;5074815;28;20055;-85
2021/08/25 06:12:21;;;;;;;5.80;3.80;;;;;;;17.50;nan;101087.91;5054379;28;20037;-86
2021/08/25 06:14:46;;;;;;;6.68;4.35;;;;;;;17.71;nan;101089.00;5054170;28;20486;-84
2021/08/25 06:17:12;;;;;;;7.15;4.10;;;;;;;17.81;nan;101093.09;5058941;28;20029;-84
2021/08/25 06:19:37;;;;;;;5.78;4.03;;;;;;;18.02;nan;101103.06;5037740;28;20281;-85
2021/08/25 06:22:02;;;;;;;7.30;4.03;;;;;;;18.27;nan;101102.72;5052409;28;20042;-86
2021/08/25 06:24:28;;;;;;;5.05;4.00;;;;;;;18.26;nan;101106.44;5053108;28;20286;-85
2021/08/25 06:26:53;;;;;;;5.28;3.95;;;;;;;18.68;nan;101097.59;5036957;28;20671;-84
2021/08/25 06:29:18;;;;;;;4.95;3.67;;;;;;;18.80;nan;101108.66;5031496;28;20048;-83
2021/08/25 06:31:44;;;;;;;4.88;3.60;;;;;;;19.15;nan;101106.09;5031337;28;20040;-83
2021/08/25 06:34:09;;;;;;;5.68;4.05;;;;;;;19.30;nan;101101.44;5052050;28;20033;-83
2021/08/25 06:36:34;;;;;;;6.78;3.50;;;;;;;19.00;nan;101103.50;5032309;28;20037;-82
2021/08/25 06:39:00;;;;;;;4.63;3.75;;;;;;;19.32;nan;101098.59;5029960;28;20034;-82
2021/08/25 06:41:25;;;;;;;4.72;3.60;;;;;;;18.99;nan;101107.19;5047913;28;20497;-83
2021/08/25 06:43:50;;;;;;;5.85;4.05;;;;;;;18.82;nan;101101.25;5021654;28;20060;-82
2021/08/25 06:46:17;;;;;;;6.28;3.90;;;;;;;18.84;nan;101101.91;5045094;28;20094;-84
2021/08/25 06:48:42;;;;;;;6.32;3.38;;;;;;;19.20;nan;101105.50;5026731;28;20045;-83
2021/08/25 06:51:08;;;;;;;4.63;3.50;;;;;;;19.72;nan;101110.44;5046092;28;20040;-83
2021/08/25 06:53:34;;;;;;;5.03;3.58;;;;;;;19.99;nan;101102.50;5031522;28;20351;-83
2021/08/25 06:56:00;;;;;;;6.38;3.60;;;;;;;20.10;nan;101107.31;5035921;28;20482;-83
2021/08/25 06:58:27;;;;;;;6.35;3.75;;;;;;;20.10;nan;101107.31;5032106;28;20044;-83
2021/08/25 07:00:52;;;;;;;5.38;3.40;;;;;;;19.98;nan;101098.19;5050739;28;20044;-83
2021/08/25 07:03:17;;;;;;;4.88;3.28;;;;;;;20.36;nan;101093.16;5053023;28;20033;-83
2021/08/25 07:05:43;;;;;;;4.53;3.30;;;;;;;20.60;nan;101099.03;5051956;28;20569;-82
2021/08/25 07:08:08;;;;;;;5.18;3.50;;;;;;;20.49;nan;101103.09;5033624;28;20037;-82
2021/08/25 07:10:33;;;;;;;4.07;3.25;;;;;;;20.46;nan;101103.50;5035205;28;20036;-83
2021/08/25 07:12:59;;;;;;;3.97;3.13;;;;;;;20.61;nan;101094.47;5053788;28;20086;-83
2021/08/25 07:15:24;;;;;;;4.32;2.88;;;;;;;21.09;nan;101105.03;5060245;28;20052;-83
2021/08/25 07:17:50;;;;;;;5.65;3.53;;;;;;;21.26;nan;101103.63;5067839;28;20025;-82
2021/08/25 07:20:15;;;;;;;3.88;2.95;;;;;;;21.19;nan;101092.84;5041306;28;20045;-83
2021/08/25 07:22:40;;;;;;;4.78;3.30;;;;;;;21.81;nan;101089.88;5037404;28;20041;-83
2021/08/25 07:25:07;;;;;;;5.55;3.35;;;;;;;21.96;nan;101086.91;5054399;28;20033;-83
2021/08/25 07:27:34;;;;;;;5.13;3.08;;;;;;;21.76;nan;101087.81;5035661;28;20526;-84
2021/08/25 07:29:59;;;;;;;5.35;3.20;;;;;;;21.65;nan;101091.16;5033392;28;20064;-83
2021/08/25 07:32:25;;;;;;;7.43;3.20;;;;;;;22.27;nan;101092.38;5053295;28;20044;-82
2021/08/25 07:34:51;;;;;;;4.78;2.80;;;;;;;22.48;nan;101091.22;5039320;28;20051;-83
2021/08/25 07:37:17;;;;;;;3.58;2.58;;;;;;;22.62;nan;101093.81;5025369;28;20040;-83
2021/08/25 07:39:42;;;;;;;3.95;3.10;;;;;;;23.02;nan;101088.97;5052266;28;20112;-84
2021/08/25 07:42:07;;;;;;;4.20;2.80;;;;;;;23.01;nan;101090.03;5052459;28;20029;-84
2021/08/25 07:44:33;;;;;;;4.32;2.63;;;;;;;23.62;nan;101085.72;5035149;28;20282;-83
2021/08/25 07:46:58;;;;;;;4.40;2.72;;;;;;;23.97;nan;101085.13;5052151;28;20029;-83
2021/08/25 07:49:23;;;;;;;4.53;2.95;;;;;;;24.32;nan;101096.09;5033721;28;20079;-83
2021/08/25 07:51:49;;;;;;;5.15;2.97;;;;;;;24.45;nan;101086.16;5035639;28;20132;-85
2021/08/25 07:54:15;;;;;;;4.13;2.78;;;;;;;24.57;nan;101082.47;5034063;28;20041;-83
2021/08/25 07:56:40;;;;;;;3.80;2.40;;;;;;;24.50;nan;101083.59;5034116;28;20033;-86
2021/08/25 07:59:05;;;;;;;4.32;2.63;;;;;;;25.00;nan;101081.38;5052621;28;20037;-84
2021/08/25 08:01:31;;;;;;;5.35;2.90;;;;;;;25.16;nan;101082.53;5051171;28;20060;-83
2021/08/25 08:03:57;;;;;;;4.75;3.10;;;;;;;25.50;nan;101079.25;5052876;28;20033;-84
2021/08/25 08:06:22;;;;;;;4.25;2.72;;;;;;;24.91;nan;101071.13;5051571;28;20120;-84
2021/08/25 08:08:48;;;;;;;5.20;2.85;;;;;;;25.16;nan;101071.72;5032981;28;20037;-84
2021/08/25 08:11:14;;;;;;;4.57;2.63;;;;;;;25.21;nan;101071.03;5050861;28;20041;-85
2021/08/25 08:13:40;;;;;;;4.05;2.60;;;;;;;25.33;nan;101071.84;5036417;28;20029;-84
2021/08/25 08:16:05;;;;;;;4.72;2.80;;;;;;;25.98;nan;101064.56;5018282;28;20038;-83
2021/08/25 08:18:33;;;;;;;4.20;2.53;;;;;;;26.19;nan;101066.59;5050557;28;20501;-84
2021/08/25 08:20:59;;;;;;;4.10;2.30;;;;;;;26.68;nan;101077.81;5051518;28;20029;-84
2021/08/25 08:23:25;;;;;;;3.80;2.30;;;;;;;27.22;nan;101063.75;5031696;28;20041;-86
2021/08/25 08:25:50;;;;;;;3.95;2.70;;;;;;;27.42;nan;101065.09;5032496;28;20383;-84
2021/08/25 08:28:15;;;;;;;4.80;2.75;;;;;;;27.78;nan;101068.28;5048970;28;20372;-85
2021/08/25 08:30:41;;;;;;;4.22;2.40;;;;;;;27.86;nan;101067.84;5032833;28;20040;-85
2021/08/25 08:33:06;;;;;;;3.83;2.30;;;;;;;28.18;nan;101062.50;5037787;28;20520;-86
2021/08/25 08:35:36;;;;;;;3.55;2.58;;;;;;;28.49;nan;101066.38;5042355;28;20040;-85
2021/08/25 08:38:01;;;;;;;3.75;2.50;;;;;;;28.95;nan;101072.19;5034477;28;20033;-85
2021/08/25 08:40:27;;;;;;;3.70;2.53;;;;;;;29.37;nan;101065.13;5036726;28;20029;-84
2021/08/25 08:42:52;;;;;;;4.07;2.60;;;;;;;29.35;nan;101064.56;5054763;28;20040;-85
2021/08/25 08:45:21;;;;;;;5.00;2.97;;;;;;;29.04;nan;101064.34;5054091;28;20025;-85
2021/08/25 08:47:47;;;;;;;4.10;2.67;;;;;;;28.37;nan;101057.53;5040713;28;20041;-85
2021/08/25 08:50:12;;;;;;;4.53;2.65;;;;;;;28.27;nan;101051.97;5032720;28;20041;-84
2021/08/25 08:52:38;;;;;;;4.60;2.65;;;;;;;28.67;nan;101059.72;5054623;28;20505;-83
2021/08/25 08:55:05;;;;;;;3.85;2.72;;;;;;;29.40;nan;101050.97;5054436;28;20041;-84
2021/08/25 08:57:30;;;;;;;4.03;2.83;;;;;;;30.06;nan;101051.25;5049188;28;20060;-84
2021/08/25 08:59:58;;;;;;;4.15;2.58;;;;;;;30.19;nan;101052.63;5039223;28;20029;-84
2021/08/25 09:02:41;;;;;;;3.78;2.40;;;;;;;30.23;nan;101051.00;5036685;28;20299;-84
2021/08/25 09:05:17;;;;;;;3.63;2.60;;;;;;;30.18;nan;101052.91;5038350;28;20383;-84
2021/08/25 09:08:02;;;;;;;3.50;2.30;;;;;;;31.02;nan;101057.03;5054558;28;20037;-84
2021/08/25 09:10:33;;;;;;;3.88;2.70;;;;;;;31.26;nan;101051.78;5024366;28;20029;-83
2021/08/25 09:13:05;;;;;;;4.30;2.60;;;;;;;31.40;nan;101049.31;5042910;28;20072;-84
2021/08/25 09:15:35;;;;;;;4.55;2.90;;;;;;;31.75;nan;101039.34;5033466;28;20044;-84
2021/08/25 09:18:09;;;;;;;3.92;2.70;;;;;;;31.16;nan;101046.38;5036422;28;20040;-85
2021/08/25 09:20:46;;;;;;;4.50;2.88;;;;;;;30.64;nan;101047.50;5046965;28;20502;-84
2021/08/25 09:23:20;;;;;;;3.75;2.65;;;;;;;30.01;nan;101044.94;5028858;28;20119;-84
2021/08/25 09:25:51;;;;;;;4.15;2.83;;;;;;;29.15;nan;101038.88;5049731;28;20120;-85
2021/08/25 09:28:19;;;;;;;4.22;2.50;;;;;;;28.82;nan;101039.97;5038508;28;20028;-84
2021/08/25 09:30:50;;;;;;;3.90;2.30;;;;;;;27.73;nan;101031.81;5035703;28;20033;-84
2021/08/25 09:33:16;;;;;;;4.15;2.70;;;;;;;27.94;nan;101045.69;5042187;28;20032;-85
2021/08/25 09:35:42;;;;;;;3.60;2.60;;;;;;;28.12;nan;101031.72;5054443;28;20041;-84
2021/08/25 09:38:07;;;;;;;4.95;3.22;;;;;;;28.60;nan;101034.63;5052995;28;20116;-84
2021/08/25 09:40:44;;;;;;;3.95;2.92;;;;;;;27.96;nan;101040.81;5032573;28;20128;-84
2021/08/25 09:43:10;;;;;;;3.58;2.53;;;;;;;27.61;nan;101035.75;5029714;28;20036;-83
2021/08/25 09:45:35;;;;;;;2.90;2.00;;;;;;;27.11;nan;101034.78;5016503;28;20057;-85
2021/08/25 09:48:00;;;;;;;5.35;3.20;;;;;;;27.30;nan;101028.00;5050782;28;20040;-83
2021/08/25 09:50:27;;;;;;;4.68;2.88;;;;;;;26.57;nan;101027.16;5033744;28;20043;-83
2021/08/25 09:52:53;;;;;;;5.38;3.25;;;;;;;26.92;nan;101028.81;5031686;28;20038;-84
2021/08/25 09:55:32;;;;;;;15.50;6.10;;;;;;;26.90;nan;101022.78;5053390;28;20036;-84
2021/08/25 09:57:59;;;;;;;6.32;3.40;;;;;;;26.78;nan;101016.66;5052954;28;20037;-84
2021/08/25 10:00:24;;;;;;;4.68;3.00;;;;;;;26.42;nan;101018.75;5052613;28;20037;-83
2021/08/25 10:02:50;;;;;;;6.63;3.38;;;;;;;26.09;nan;101009.50;5052191;28;20036;-83
2021/08/25 10:05:27;;;;;;;4.25;2.90;;;;;;;25.06;nan;101003.84;5028390;28;20519;-82
2021/08/25 10:07:53;;;;;;;5.13;3.30;;;;;;;24.75;nan;101008.53;5035610;28;20029;-83
2021/08/25 10:10:18;;;;;;;4.93;3.03;;;;;;;24.27;nan;101012.19;5053692;28;20033;-83
2021/08/25 10:12:44;;;;;;;4.43;3.03;;;;;;;24.31;nan;101001.72;5029568;28;20036;-82
2021/08/25 10:15:31;;;;;;;5.38;3.30;;;;;;;24.52;nan;101003.09;5034882;28;20079;-83
2021/08/25 10:17:59;;;;;;;4.20;3.00;;;;;;;23.77;nan;100996.25;5052356;28;20039;-82
2021/08/25 10:20:25;;;;;;;5.20;3.00;;;;;;;23.88;nan;100992.78;5055054;28;20032;-83
2021/08/25 10:22:52;;;;;;;5.20;2.95;;;;;;;23.80;nan;100995.78;5030617;28;20128;-83
2021/08/25 10:25:18;;;;;;;6.00;3.25;;;;;;;23.68;nan;100989.50;5054368;28;20095;-84
2021/08/25 10:28:09;;;;;;;4.60;2.97;;;;;;;23.67;nan;100987.84;5036326;28;20494;-84
2021/08/25 10:30:54;;;;;;;4.78;3.20;;;;;;;23.92;nan;100990.44;5053102;28;20041;-82
2021/08/25 10:33:20;;;;;;;5.03;2.92;;;;;;;24.16;nan;100978.66;5027662;28;20095;-84
2021/08/25 10:35:47;;;;;;;6.10;3.10;;;;;;;23.96;nan;100983.53;5049388;28;20113;-82
2021/08/25 10:38:19;;;;;;;5.88;3.42;;;;;;;23.87;nan;100977.63;5045857;28;20068;-83
2021/08/25 10:40:46;;;;;;;5.72;3.30;;;;;;;23.82;nan;100979.38;5053894;28;20408;-84
2021/08/25 10:43:35;;;;;;;6.10;3.35;;;;;;;24.03;nan;100975.34;5036829;28;20028;-84
2021/08/25 10:46:01;;;;;;;5.82;3.10;;;;;;;23.98;nan;100975.19;5038573;28;20367;-84
2021/08/25 10:48:42;;;;;;;4.88;3.38;;;;;;;23.93;nan;100975.88;5054114;28;20037;-83
2021/08/25 10:51:32;;;;;;;4.82;3.05;;;;;;;23.90;nan;100963.66;5028027;28;20064;-83
2021/08/25 10:54:03;;;;;;;4.93;3.20;;;;;;;23.65;nan;100961.06;5054954;28;20033;-82
2021/08/25 10:56:30;;;;;;;4.88;2.90;;;;;;;23.24;nan;100953.69;5038164;28;20029;-82
2021/08/25 10:59:00;;;;;;;4.72;3.10;;;;;;;23.75;nan;100963.25;5052766;28;20036;-84
2021/08/25 11:01:38;;;;;;;5.00;3.30;;;;;;;23.90;nan;100958.25;5030990;28;20086;-83
2021/08/25 11:04:15;;;;;;;6.22;3.67;;;;;;;23.91;nan;100957.22;5051461;28;20128;-84
2021/08/25 11:06:46;;;;;;;5.82;3.47;;;;;;;23.52;nan;100948.56;5034921;28;20032;-83
2021/08/25 11:09:20;;;;;;;5.90;3.58;;;;;;;23.60;nan;100946.63;5034190;28;20049;-82
2021/08/25 11:11:51;;;;;;;4.75;3.22;;;;;;;23.38;nan;100941.66;5051635;28;20071;-82
2021/08/25 11:14:24;;;;;;;4.55;3.13;;;;;;;23.37;nan;100939.22;5037560;28;20394;-84
2021/08/25 11:16:51;;;;;;;6.88;3.35;;;;;;;23.06;nan;100933.75;5053507;28;20130;-82
2021/08/25 11:19:25;;;;;;;4.63;3.13;;;;;;;23.32;nan;100931.81;5055312;28;20049;-83
2021/08/25 11:21:51;;;;;;;8.07;3.67;;;;;;;23.60;nan;100930.41;5056064;28;20441;-83
2021/08/25 11:24:17;;;;;;;6.30;2.97;;;;;;;23.15;nan;100928.06;5059488;28;20032;-82
2021/08/25 11:26:42;;;;;;;7.35;3.70;;;;;;;23.15;nan;100928.06;5056678;28;20037;-84
2021/08/25 11:29:23;;;;;;;5.07;3.38;;;;;;;23.21;nan;100925.28;5054499;28;20048;-84
2021/08/25 11:31:50;;;;;;;5.07;3.08;;;;;;;23.24;nan;100922.16;5043485;28;20677;-83
2021/08/25 11:34:18;;;;;;;6.15;3.20;;;;;;;23.20;nan;100928.22;5018619;28;20049;-82
2021/08/25 11:37:03;;;;;;;4.95;2.88;;;;;;;23.25;nan;100923.78;5022377;28;20049;-82
2021/08/25 11:39:30;;;;;;;5.03;3.38;;;;;;;23.27;nan;100921.69;5035573;28;20047;-83
2021/08/25 11:41:57;;;;;;;6.35;3.67;;;;;;;23.31;nan;100917.50;5052848;28;20039;-84